sensor_id;sensor_type;location;lat;lon;timestamp;P1;durP1;ratioP1;P2;durP2;ratioP2
33006;SDS011;19361;51.598;7.650;2023-10-31T00:03:41;3.38;;;1.80;;
33006;SDS011;19361;51.598;7.650;2023-10-31T00:08:42;1.92;;;1.52;;
33006;SDS011;19361;51.598;7.650;2023-10-31T00:13:43;1.83;;;1.67;;
33006;SDS011;19361;51.598;7.650;2023-10-31T00:18:44;1.30;;;1.20;;
33006;SDS011;19361;51.598;7.650;2023-10-31T00:23:45;1.30;;;1.30;;
33006;SDS011;19361;51.598;7.650;2023-10-31T00:28:47;1.70;;;1.60;;
33006;SDS011;19361;51.598;7.650;2023-10-31T00:33:47;1.50;;;1.40;;
33006;SDS011;19361;51.598;7.650;2023-10-31T00:38:48;4.65;;;1.80;;
33006;SDS011;19361;51.598;7.650;2023-10-31T00:43:49;6.68;;;1.90;;
33006;SDS011;19361;51.598;7.650;2023-10-31T00:48:49;2.53;;;2.33;;
33006;SDS011;19361;51.598;7.650;2023-10-31T00:53:50;3.47;;;2.55;;
33006;SDS011;19361;51.598;7.650;2023-10-31T00:58:51;3.05;;;2.08;;
33006;SDS011;19361;51.598;7.650;2023-10-31T01:03:51;2.08;;;1.98;;
33006;SDS011;19361;51.598;7.650;2023-10-31T01:08:52;2.20;;;1.98;;
33006;SDS011;19361;51.598;7.650;2023-10-31T01:13:53;1.45;;;1.35;;
33006;SDS011;19361;51.598;7.650;2023-10-31T01:18:53;1.55;;;1.45;;
33006;SDS011;19361;51.598;7.650;2023-10-31T01:23:55;2.40;;;1.27;;
33006;SDS011;19361;51.598;7.650;2023-10-31T01:28:56;1.45;;;1.35;;
33006;SDS011;19361;51.598;7.650;2023-10-31T01:33:58;1.70;;;1.60;;
33006;SDS011;19361;51.598;7.650;2023-10-31T01:38:58;1.50;;;1.40;;
33006;SDS011;19361;51.598;7.650;2023-10-31T01:43:59;2.00;;;1.50;;
33006;SDS011;19361;51.598;7.650;2023-10-31T01:49:00;1.90;;;1.80;;
33006;SDS011;19361;51.598;7.650;2023-10-31T01:54:01;3.42;;;1.40;;
33006;SDS011;19361;51.598;7.650;2023-10-31T01:59:03;1.42;;;1.38;;
33006;SDS011;19361;51.598;7.650;2023-10-31T02:04:05;2.67;;;1.23;;
33006;SDS011;19361;51.598;7.650;2023-10-31T02:09:06;2.08;;;1.50;;
33006;SDS011;19361;51.598;7.650;2023-10-31T02:14:07;4.03;;;1.63;;
33006;SDS011;19361;51.598;7.650;2023-10-31T02:19:07;3.88;;;1.92;;
33006;SDS011;19361;51.598;7.650;2023-10-31T02:24:10;3.10;;;1.88;;
33006;SDS011;19361;51.598;7.650;2023-10-31T02:29:10;3.85;;;2.10;;
33006;SDS011;19361;51.598;7.650;2023-10-31T02:34:11;2.13;;;1.77;;
33006;SDS011;19361;51.598;7.650;2023-10-31T02:39:12;5.55;;;2.47;;
33006;SDS011;19361;51.598;7.650;2023-10-31T02:44:14;4.10;;;1.77;;
33006;SDS011;19361;51.598;7.650;2023-10-31T02:49:15;2.67;;;2.05;;
33006;SDS011;19361;51.598;7.650;2023-10-31T02:54:16;4.80;;;1.95;;
33006;SDS011;19361;51.598;7.650;2023-10-31T02:59:17;2.92;;;2.10;;
33006;SDS011;19361;51.598;7.650;2023-10-31T03:04:17;2.63;;;2.17;;
33006;SDS011;19361;51.598;7.650;2023-10-31T03:09:18;3.30;;;3.00;;
33006;SDS011;19361;51.598;7.650;2023-10-31T03:14:19;3.17;;;2.92;;
33006;SDS011;19361;51.598;7.650;2023-10-31T03:19:19;10.57;;;3.83;;
33006;SDS011;19361;51.598;7.650;2023-10-31T03:24:20;4.43;;;3.70;;
33006;SDS011;19361;51.598;7.650;2023-10-31T03:29:21;5.15;;;3.40;;
33006;SDS011;19361;51.598;7.650;2023-10-31T03:34:21;3.35;;;2.90;;
33006;SDS011;19361;51.598;7.650;2023-10-31T03:39:22;3.20;;;2.90;;
33006;SDS011;19361;51.598;7.650;2023-10-31T03:44:23;3.70;;;2.50;;
33006;SDS011;19361;51.598;7.650;2023-10-31T03:49:23;2.55;;;2.35;;
33006;SDS011;19361;51.598;7.650;2023-10-31T03:54:24;2.55;;;2.33;;
33006;SDS011;19361;51.598;7.650;2023-10-31T03:59:25;2.97;;;2.67;;
33006;SDS011;19361;51.598;7.650;2023-10-31T04:04:25;3.08;;;2.72;;
33006;SDS011;19361;51.598;7.650;2023-10-31T04:09:26;4.18;;;2.67;;
33006;SDS011;19361;51.598;7.650;2023-10-31T04:14:27;6.07;;;3.47;;
33006;SDS011;19361;51.598;7.650;2023-10-31T04:19:27;4.22;;;3.83;;
33006;SDS011;19361;51.598;7.650;2023-10-31T04:24:28;6.07;;;4.20;;
33006;SDS011;19361;51.598;7.650;2023-10-31T04:29:28;5.82;;;5.22;;
33006;SDS011;19361;51.598;7.650;2023-10-31T04:34:29;8.10;;;5.18;;
33006;SDS011;19361;51.598;7.650;2023-10-31T04:39:30;8.13;;;5.55;;
33006;SDS011;19361;51.598;7.650;2023-10-31T04:44:31;4.90;;;4.40;;
33006;SDS011;19361;51.598;7.650;2023-10-31T04:49:34;5.10;;;4.05;;
33006;SDS011;19361;51.598;7.650;2023-10-31T04:54:35;4.03;;;3.63;;
33006;SDS011;19361;51.598;7.650;2023-10-31T04:59:36;4.68;;;3.22;;
33006;SDS011;19361;51.598;7.650;2023-10-31T05:04:38;4.50;;;3.58;;
33006;SDS011;19361;51.598;7.650;2023-10-31T05:09:40;5.07;;;3.50;;
33006;SDS011;19361;51.598;7.650;2023-10-31T05:14:41;4.82;;;3.97;;
33006;SDS011;19361;51.598;7.650;2023-10-31T05:19:42;6.63;;;4.10;;
33006;SDS011;19361;51.598;7.650;2023-10-31T05:24:43;4.05;;;3.70;;
33006;SDS011;19361;51.598;7.650;2023-10-31T05:29:43;4.07;;;3.45;;
33006;SDS011;19361;51.598;7.650;2023-10-31T05:34:44;5.57;;;3.45;;
33006;SDS011;19361;51.598;7.650;2023-10-31T05:39:45;3.53;;;3.20;;
33006;SDS011;19361;51.598;7.650;2023-10-31T05:44:45;4.60;;;3.22;;
33006;SDS011;19361;51.598;7.650;2023-10-31T05:49:46;4.53;;;4.18;;
33006;SDS011;19361;51.598;7.650;2023-10-31T05:54:47;6.30;;;4.22;;
33006;SDS011;19361;51.598;7.650;2023-10-31T05:59:47;5.22;;;4.32;;
33006;SDS011;19361;51.598;7.650;2023-10-31T06:04:48;5.10;;;3.72;;
33006;SDS011;19361;51.598;7.650;2023-10-31T06:09:49;4.93;;;4.53;;
33006;SDS011;19361;51.598;7.650;2023-10-31T06:14:49;5.07;;;4.65;;
33006;SDS011;19361;51.598;7.650;2023-10-31T06:19:50;14.10;;;6.05;;
33006;SDS011;19361;51.598;7.650;2023-10-31T06:24:51;7.35;;;6.00;;
33006;SDS011;19361;51.598;7.650;2023-10-31T06:29:52;7.90;;;5.88;;
33006;SDS011;19361;51.598;7.650;2023-10-31T06:34:53;8.95;;;7.43;;
33006;SDS011;19361;51.598;7.650;2023-10-31T06:39:53;9.82;;;7.60;;
33006;SDS011;19361;51.598;7.650;2023-10-31T06:44:55;9.48;;;7.85;;
33006;SDS011;19361;51.598;7.650;2023-10-31T06:49:55;10.43;;;8.18;;
33006;SDS011;19361;51.598;7.650;2023-10-31T06:54:56;9.73;;;7.75;;
33006;SDS011;19361;51.598;7.650;2023-10-31T06:59:56;11.85;;;8.88;;
33006;SDS011;19361;51.598;7.650;2023-10-31T07:04:57;9.95;;;8.68;;
33006;SDS011;19361;51.598;7.650;2023-10-31T07:09:58;11.48;;;9.98;;
33006;SDS011;19361;51.598;7.650;2023-10-31T07:14:59;14.20;;;11.02;;
33006;SDS011;19361;51.598;7.650;2023-10-31T07:19:59;12.90;;;10.70;;
33006;SDS011;19361;51.598;7.650;2023-10-31T07:25:00;13.13;;;10.65;;
33006;SDS011;19361;51.598;7.650;2023-10-31T07:30:03;13.38;;;11.30;;
33006;SDS011;19361;51.598;7.650;2023-10-31T07:35:06;13.25;;;11.90;;
33006;SDS011;19361;51.598;7.650;2023-10-31T07:40:07;14.52;;;11.30;;
33006;SDS011;19361;51.598;7.650;2023-10-31T07:45:08;13.45;;;12.05;;
33006;SDS011;19361;51.598;7.650;2023-10-31T07:50:10;13.13;;;11.77;;
33006;SDS011;19361;51.598;7.650;2023-10-31T07:55:11;11.38;;;10.18;;
33006;SDS011;19361;51.598;7.650;2023-10-31T08:00:12;11.77;;;10.40;;
33006;SDS011;19361;51.598;7.650;2023-10-31T08:05:13;11.23;;;10.05;;
33006;SDS011;19361;51.598;7.650;2023-10-31T08:10:14;11.35;;;10.13;;
33006;SDS011;19361;51.598;7.650;2023-10-31T08:15:15;12.25;;;9.82;;
33006;SDS011;19361;51.598;7.650;2023-10-31T08:20:17;10.40;;;9.40;;
33006;SDS011;19361;51.598;7.650;2023-10-31T08:25:17;8.68;;;7.88;;
33006;SDS011;19361;51.598;7.650;2023-10-31T08:30:18;9.10;;;7.32;;
33006;SDS011;19361;51.598;7.650;2023-10-31T08:35:20;9.40;;;6.97;;
33006;SDS011;19361;51.598;7.650;2023-10-31T08:40:20;7.43;;;6.72;;
33006;SDS011;19361;51.598;7.650;2023-10-31T08:45:21;6.47;;;5.88;;
33006;SDS011;19361;51.598;7.650;2023-10-31T08:50:22;7.60;;;6.03;;
33006;SDS011;19361;51.598;7.650;2023-10-31T08:55:22;6.03;;;5.53;;
33006;SDS011;19361;51.598;7.650;2023-10-31T09:00:23;6.82;;;6.15;;
33006;SDS011;19361;51.598;7.650;2023-10-31T09:05:24;5.55;;;5.10;;
33006;SDS011;19361;51.598;7.650;2023-10-31T09:10:24;6.05;;;5.38;;
33006;SDS011;19361;51.598;7.650;2023-10-31T09:15:25;7.50;;;5.45;;
33006;SDS011;19361;51.598;7.650;2023-10-31T09:20:26;6.82;;;6.22;;
33006;SDS011;19361;51.598;7.650;2023-10-31T09:25:27;6.55;;;5.88;;
33006;SDS011;19361;51.598;7.650;2023-10-31T09:30:30;5.80;;;5.30;;
33006;SDS011;19361;51.598;7.650;2023-10-31T09:35:30;4.90;;;4.50;;
33006;SDS011;19361;51.598;7.650;2023-10-31T09:40:31;6.55;;;5.20;;
33006;SDS011;19361;51.598;7.650;2023-10-31T09:45:32;6.32;;;5.18;;
33006;SDS011;19361;51.598;7.650;2023-10-31T09:50:32;5.18;;;4.78;;
33006;SDS011;19361;51.598;7.650;2023-10-31T09:55:34;4.50;;;4.10;;
33006;SDS011;19361;51.598;7.650;2023-10-31T10:00:35;4.40;;;4.05;;
33006;SDS011;19361;51.598;7.650;2023-10-31T10:05:40;4.65;;;4.25;;
33006;SDS011;19361;51.598;7.650;2023-10-31T10:10:44;6.40;;;4.95;;
33006;SDS011;19361;51.598;7.650;2023-10-31T10:15:45;5.38;;;4.97;;
33006;SDS011;19361;51.598;7.650;2023-10-31T10:20:56;6.30;;;5.15;;
33006;SDS011;19361;51.598;7.650;2023-10-31T10:26:04;6.50;;;5.68;;
33006;SDS011;19361;51.598;7.650;2023-10-31T10:31:04;7.72;;;5.25;;
33006;SDS011;19361;51.598;7.650;2023-10-31T10:36:06;5.60;;;4.93;;
33006;SDS011;19361;51.598;7.650;2023-10-31T10:41:10;5.10;;;4.57;;
33006;SDS011;19361;51.598;7.650;2023-10-31T10:46:13;6.03;;;5.00;;
33006;SDS011;19361;51.598;7.650;2023-10-31T10:51:29;6.57;;;4.75;;
33006;SDS011;19361;51.598;7.650;2023-10-31T10:56:53;6.32;;;4.50;;
33006;SDS011;19361;51.598;7.650;2023-10-31T11:01:58;6.38;;;4.40;;
33006;SDS011;19361;51.598;7.650;2023-10-31T11:07:00;5.65;;;5.03;;
33006;SDS011;19361;51.598;7.650;2023-10-31T11:12:02;7.75;;;4.32;;
33006;SDS011;19361;51.598;7.650;2023-10-31T11:17:06;9.00;;;4.55;;
33006;SDS011;19361;51.598;7.650;2023-10-31T11:22:17;8.20;;;4.60;;
33006;SDS011;19361;51.598;7.650;2023-10-31T11:27:19;8.25;;;5.20;;
33006;SDS011;19361;51.598;7.650;2023-10-31T11:32:19;7.65;;;4.50;;
33006;SDS011;19361;51.598;7.650;2023-10-31T11:37:23;9.52;;;4.65;;
33006;SDS011;19361;51.598;7.650;2023-10-31T11:42:26;8.43;;;5.10;;
33006;SDS011;19361;51.598;7.650;2023-10-31T11:47:27;8.35;;;4.60;;
33006;SDS011;19361;51.598;7.650;2023-10-31T11:58:23;8.13;;;4.80;;
33006;SDS011;19361;51.598;7.650;2023-10-31T12:03:36;9.20;;;5.03;;
33006;SDS011;19361;51.598;7.650;2023-10-31T12:08:42;10.45;;;4.90;;
33006;SDS011;19361;51.598;7.650;2023-10-31T12:19:03;7.25;;;3.78;;
33006;SDS011;19361;51.598;7.650;2023-10-31T12:24:05;9.73;;;5.15;;
33006;SDS011;19361;51.598;7.650;2023-10-31T12:29:12;6.97;;;4.10;;
33006;SDS011;19361;51.598;7.650;2023-10-31T12:34:19;7.75;;;3.80;;
33006;SDS011;19361;51.598;7.650;2023-10-31T12:39:22;6.43;;;3.50;;
33006;SDS011;19361;51.598;7.650;2023-10-31T12:44:26;12.00;;;3.72;;
33006;SDS011;19361;51.598;7.650;2023-10-31T12:49:27;7.60;;;3.35;;
33006;SDS011;19361;51.598;7.650;2023-10-31T12:54:31;7.68;;;3.60;;
33006;SDS011;19361;51.598;7.650;2023-10-31T12:59:35;9.82;;;4.25;;
33006;SDS011;19361;51.598;7.650;2023-10-31T13:04:40;6.40;;;2.90;;
33006;SDS011;19361;51.598;7.650;2023-10-31T13:09:41;7.45;;;2.85;;
33006;SDS011;19361;51.598;7.650;2023-10-31T13:14:42;5.47;;;2.72;;
33006;SDS011;19361;51.598;7.650;2023-10-31T13:19:43;8.20;;;2.78;;
33006;SDS011;19361;51.598;7.650;2023-10-31T13:24:43;6.65;;;3.05;;
33006;SDS011;19361;51.598;7.650;2023-10-31T13:29:45;9.52;;;2.88;;
33006;SDS011;19361;51.598;7.650;2023-10-31T13:34:49;5.97;;;3.00;;
33006;SDS011;19361;51.598;7.650;2023-10-31T13:39:50;9.98;;;2.67;;
33006;SDS011;19361;51.598;7.650;2023-10-31T13:44:50;13.18;;;2.58;;
33006;SDS011;19361;51.598;7.650;2023-10-31T13:49:51;6.57;;;2.40;;
33006;SDS011;19361;51.598;7.650;2023-10-31T13:54:52;6.43;;;2.25;;
33006;SDS011;19361;51.598;7.650;2023-10-31T13:59:52;6.55;;;2.17;;
33006;SDS011;19361;51.598;7.650;2023-10-31T14:04:53;6.97;;;2.03;;
33006;SDS011;19361;51.598;7.650;2023-10-31T14:09:54;5.38;;;2.00;;
33006;SDS011;19361;51.598;7.650;2023-10-31T14:14:56;6.55;;;3.15;;
33006;SDS011;19361;51.598;7.650;2023-10-31T14:19:57;6.53;;;2.20;;
33006;SDS011;19361;51.598;7.650;2023-10-31T14:24:57;3.67;;;1.80;;
33006;SDS011;19361;51.598;7.650;2023-10-31T14:29:58;5.13;;;2.00;;
33006;SDS011;19361;51.598;7.650;2023-10-31T14:34:59;3.00;;;1.63;;
33006;SDS011;19361;51.598;7.650;2023-10-31T14:39:59;5.30;;;1.77;;
33006;SDS011;19361;51.598;7.650;2023-10-31T14:45:03;5.72;;;2.13;;
33006;SDS011;19361;51.598;7.650;2023-10-31T14:50:05;4.43;;;2.00;;
33006;SDS011;19361;51.598;7.650;2023-10-31T14:55:06;4.97;;;1.75;;
33006;SDS011;19361;51.598;7.650;2023-10-31T15:00:09;3.22;;;1.60;;
33006;SDS011;19361;51.598;7.650;2023-10-31T15:05:12;3.88;;;1.58;;
33006;SDS011;19361;51.598;7.650;2023-10-31T15:10:12;2.83;;;1.70;;
33006;SDS011;19361;51.598;7.650;2023-10-31T15:15:13;3.10;;;1.60;;
33006;SDS011;19361;51.598;7.650;2023-10-31T15:20:15;2.08;;;1.67;;
33006;SDS011;19361;51.598;7.650;2023-10-31T15:25:16;4.25;;;2.00;;
33006;SDS011;19361;51.598;7.650;2023-10-31T15:30:17;4.28;;;1.90;;
33006;SDS011;19361;51.598;7.650;2023-10-31T15:35:17;2.03;;;1.50;;
33006;SDS011;19361;51.598;7.650;2023-10-31T15:40:18;4.93;;;1.63;;
33006;SDS011;19361;51.598;7.650;2023-10-31T15:45:19;3.83;;;1.70;;
33006;SDS011;19361;51.598;7.650;2023-10-31T15:50:19;4.22;;;1.65;;
33006;SDS011;19361;51.598;7.650;2023-10-31T15:55:20;2.53;;;1.75;;
33006;SDS011;19361;51.598;7.650;2023-10-31T16:00:21;3.85;;;2.50;;
33006;SDS011;19361;51.598;7.650;2023-10-31T16:05:21;3.72;;;2.17;;
33006;SDS011;19361;51.598;7.650;2023-10-31T16:10:23;4.13;;;2.20;;
33006;SDS011;19361;51.598;7.650;2023-10-31T16:15:23;5.72;;;2.97;;
33006;SDS011;19361;51.598;7.650;2023-10-31T16:20:24;4.97;;;2.47;;
33006;SDS011;19361;51.598;7.650;2023-10-31T16:25:25;4.88;;;2.67;;
33006;SDS011;19361;51.598;7.650;2023-10-31T16:30:26;6.40;;;2.67;;
33006;SDS011;19361;51.598;7.650;2023-10-31T16:35:27;6.63;;;3.55;;
33006;SDS011;19361;51.598;7.650;2023-10-31T16:40:27;9.48;;;5.15;;
33006;SDS011;19361;51.598;7.650;2023-10-31T16:45:28;8.63;;;4.68;;
33006;SDS011;19361;51.598;7.650;2023-10-31T16:50:29;4.95;;;4.30;;
33006;SDS011;19361;51.598;7.650;2023-10-31T16:55:31;11.27;;;4.93;;
33006;SDS011;19361;51.598;7.650;2023-10-31T17:00:32;9.63;;;5.03;;
33006;SDS011;19361;51.598;7.650;2023-10-31T17:05:33;10.32;;;5.10;;
33006;SDS011;19361;51.598;7.650;2023-10-31T17:10:33;5.47;;;4.80;;
33006;SDS011;19361;51.598;7.650;2023-10-31T17:15:34;11.20;;;5.25;;
33006;SDS011;19361;51.598;7.650;2023-10-31T17:20:35;11.35;;;6.32;;
33006;SDS011;19361;51.598;7.650;2023-10-31T17:25:37;5.95;;;5.25;;
33006;SDS011;19361;51.598;7.650;2023-10-31T17:30:38;9.68;;;5.97;;
33006;SDS011;19361;51.598;7.650;2023-10-31T17:35:39;12.10;;;8.18;;
33006;SDS011;19361;51.598;7.650;2023-10-31T17:40:40;14.85;;;8.52;;
33006;SDS011;19361;51.598;7.650;2023-10-31T17:45:41;7.55;;;5.18;;
33006;SDS011;19361;51.598;7.650;2023-10-31T17:50:42;8.10;;;3.88;;
33006;SDS011;19361;51.598;7.650;2023-10-31T17:55:45;7.30;;;4.10;;
33006;SDS011;19361;51.598;7.650;2023-10-31T18:00:46;6.93;;;3.70;;
33006;SDS011;19361;51.598;7.650;2023-10-31T18:05:46;7.00;;;3.63;;
33006;SDS011;19361;51.598;7.650;2023-10-31T18:10:47;7.28;;;3.72;;
33006;SDS011;19361;51.598;7.650;2023-10-31T18:15:48;8.57;;;4.07;;
33006;SDS011;19361;51.598;7.650;2023-10-31T18:20:50;7.13;;;4.00;;
33006;SDS011;19361;51.598;7.650;2023-10-31T18:25:51;5.32;;;3.63;;
33006;SDS011;19361;51.598;7.650;2023-10-31T18:30:51;6.97;;;4.18;;
33006;SDS011;19361;51.598;7.650;2023-10-31T18:35:52;7.35;;;4.13;;
33006;SDS011;19361;51.598;7.650;2023-10-31T18:40:53;7.70;;;3.97;;
33006;SDS011;19361;51.598;7.650;2023-10-31T18:45:53;5.38;;;3.40;;
33006;SDS011;19361;51.598;7.650;2023-10-31T18:50:54;5.45;;;2.80;;
33006;SDS011;19361;51.598;7.650;2023-10-31T18:55:55;6.63;;;3.13;;
33006;SDS011;19361;51.598;7.650;2023-10-31T19:00:55;5.57;;;3.10;;
33006;SDS011;19361;51.598;7.650;2023-10-31T19:05:58;5.57;;;3.10;;
33006;SDS011;19361;51.598;7.650;2023-10-31T19:10:58;4.95;;;3.17;;
33006;SDS011;19361;51.598;7.650;2023-10-31T19:15:59;4.82;;;3.80;;
33006;SDS011;19361;51.598;7.650;2023-10-31T19:21:00;5.15;;;3.70;;
33006;SDS011;19361;51.598;7.650;2023-10-31T19:26:00;6.10;;;4.18;;
33006;SDS011;19361;51.598;7.650;2023-10-31T19:31:02;5.05;;;3.90;;
33006;SDS011;19361;51.598;7.650;2023-10-31T19:36:03;5.97;;;4.60;;
33006;SDS011;19361;51.598;7.650;2023-10-31T19:41:05;5.97;;;4.18;;
33006;SDS011;19361;51.598;7.650;2023-10-31T19:46:06;7.18;;;4.70;;
33006;SDS011;19361;51.598;7.650;2023-10-31T19:51:07;6.25;;;4.60;;
33006;SDS011;19361;51.598;7.650;2023-10-31T19:56:15;7.32;;;4.60;;
33006;SDS011;19361;51.598;7.650;2023-10-31T20:01:20;6.78;;;5.05;;
33006;SDS011;19361;51.598;7.650;2023-10-31T20:06:20;6.55;;;4.28;;
33006;SDS011;19361;51.598;7.650;2023-10-31T20:11:21;7.70;;;4.38;;
33006;SDS011;19361;51.598;7.650;2023-10-31T20:16:22;7.43;;;3.90;;
33006;SDS011;19361;51.598;7.650;2023-10-31T20:21:23;16.60;;;10.45;;
33006;SDS011;19361;51.598;7.650;2023-10-31T20:26:23;22.90;;;13.88;;
33006;SDS011;19361;51.598;7.650;2023-10-31T20:31:24;10.40;;;7.18;;
33006;SDS011;19361;51.598;7.650;2023-10-31T20:36:24;6.82;;;6.13;;
33006;SDS011;19361;51.598;7.650;2023-10-31T20:41:25;7.82;;;6.05;;
33006;SDS011;19361;51.598;7.650;2023-10-31T20:46:26;6.45;;;5.03;;
33006;SDS011;19361;51.598;7.650;2023-10-31T20:51:27;5.53;;;4.97;;
33006;SDS011;19361;51.598;7.650;2023-10-31T20:56:27;9.30;;;5.28;;
33006;SDS011;19361;51.598;7.650;2023-10-31T21:01:28;7.45;;;4.38;;
33006;SDS011;19361;51.598;7.650;2023-10-31T21:06:31;6.05;;;4.70;;
33006;SDS011;19361;51.598;7.650;2023-10-31T21:11:35;8.30;;;4.50;;
33006;SDS011;19361;51.598;7.650;2023-10-31T21:16:36;5.88;;;4.25;;
33006;SDS011;19361;51.598;7.650;2023-10-31T21:21:37;7.00;;;4.63;;
33006;SDS011;19361;51.598;7.650;2023-10-31T21:26:37;6.75;;;4.57;;
33006;SDS011;19361;51.598;7.650;2023-10-31T21:31:38;9.75;;;4.88;;
33006;SDS011;19361;51.598;7.650;2023-10-31T21:36:39;5.78;;;4.18;;
33006;SDS011;19361;51.598;7.650;2023-10-31T21:41:43;5.40;;;3.75;;
33006;SDS011;19361;51.598;7.650;2023-10-31T21:46:45;5.30;;;3.72;;
33006;SDS011;19361;51.598;7.650;2023-10-31T21:51:47;7.97;;;3.85;;
33006;SDS011;19361;51.598;7.650;2023-10-31T21:56:48;8.38;;;4.60;;
33006;SDS011;19361;51.598;7.650;2023-10-31T22:01:48;7.22;;;3.25;;
33006;SDS011;19361;51.598;7.650;2023-10-31T22:06:49;7.95;;;3.58;;
33006;SDS011;19361;51.598;7.650;2023-10-31T22:11:50;6.88;;;3.10;;
33006;SDS011;19361;51.598;7.650;2023-10-31T22:16:51;9.85;;;3.22;;
33006;SDS011;19361;51.598;7.650;2023-10-31T22:21:52;9.63;;;3.30;;
33006;SDS011;19361;51.598;7.650;2023-10-31T22:26:52;7.55;;;3.70;;
33006;SDS011;19361;51.598;7.650;2023-10-31T22:31:53;9.38;;;3.88;;
33006;SDS011;19361;51.598;7.650;2023-10-31T22:36:54;5.40;;;3.85;;
33006;SDS011;19361;51.598;7.650;2023-10-31T22:41:54;11.60;;;4.45;;
33006;SDS011;19361;51.598;7.650;2023-10-31T22:46:55;7.18;;;3.65;;
33006;SDS011;19361;51.598;7.650;2023-10-31T22:51:56;6.13;;;4.25;;
33006;SDS011;19361;51.598;7.650;2023-10-31T22:56:57;3.72;;;2.80;;
33006;SDS011;19361;51.598;7.650;2023-10-31T23:01:57;6.32;;;3.05;;
33006;SDS011;19361;51.598;7.650;2023-10-31T23:06:58;10.70;;;2.88;;
33006;SDS011;19361;51.598;7.650;2023-10-31T23:11:59;6.72;;;3.20;;
33006;SDS011;19361;51.598;7.650;2023-10-31T23:17:01;8.85;;;3.08;;
33006;SDS011;19361;51.598;7.650;2023-10-31T23:22:02;5.95;;;2.90;;
33006;SDS011;19361;51.598;7.650;2023-10-31T23:27:03;5.85;;;2.60;;
33006;SDS011;19361;51.598;7.650;2023-10-31T23:32:04;12.00;;;2.80;;
33006;SDS011;19361;51.598;7.650;2023-10-31T23:37:05;7.15;;;2.70;;
33006;SDS011;19361;51.598;7.650;2023-10-31T23:42:06;8.25;;;3.08;;
33006;SDS011;19361;51.598;7.650;2023-10-31T23:47:06;6.82;;;2.90;;
33006;SDS011;19361;51.598;7.650;2023-10-31T23:52:08;5.75;;;2.63;;
33006;SDS011;19361;51.598;7.650;2023-10-31T23:57:09;6.18;;;2.72;;
